sensor_id;sensor_type;location;lat;lon;timestamp;temperature;humidity
21787;DHT22;11055;50.870;4.316;2022-12-18T00:01:20;1.00;99.90
21787;DHT22;11055;50.870;4.316;2022-12-18T00:03:47;1.00;99.90
21787;DHT22;11055;50.870;4.316;2022-12-18T00:06:13;1.00;99.90
21787;DHT22;11055;50.870;4.316;2022-12-18T00:08:42;0.70;99.90
21787;DHT22;11055;50.870;4.316;2022-12-18T00:11:11;0.40;99.90
21787;DHT22;11055;50.870;4.316;2022-12-18T00:13:37;0.30;99.90
21787;DHT22;11055;50.870;4.316;2022-12-18T00:16:05;0.40;99.90
21787;DHT22;11055;50.870;4.316;2022-12-18T00:18:31;0.60;99.90
21787;DHT22;11055;50.870;4.316;2022-12-18T00:21:02;0.70;99.90
21787;DHT22;11055;50.870;4.316;2022-12-18T00:23:28;0.80;99.90
21787;DHT22;11055;50.870;4.316;2022-12-18T00:25:54;0.70;99.90
21787;DHT22;11055;50.870;4.316;2022-12-18T00:28:20;0.70;99.90
21787;DHT22;11055;50.870;4.316;2022-12-18T00:30:46;0.60;99.90
21787;DHT22;11055;50.870;4.316;2022-12-18T00:33:11;0.60;99.90
21787;DHT22;11055;50.870;4.316;2022-12-18T00:35:37;0.70;99.90
21787;DHT22;11055;50.870;4.316;2022-12-18T00:38:03;0.60;99.90
21787;DHT22;11055;50.870;4.316;2022-12-18T00:40:28;0.60;99.90
21787;DHT22;11055;50.870;4.316;2022-12-18T00:42:54;0.60;99.90
21787;DHT22;11055;50.870;4.316;2022-12-18T00:45:28;0.50;99.90
21787;DHT22;11055;50.870;4.316;2022-12-18T00:47:54;0.40;99.90
21787;DHT22;11055;50.870;4.316;2022-12-18T00:50:21;0.40;99.90
21787;DHT22;11055;50.870;4.316;2022-12-18T00:52:47;0.40;99.90
21787;DHT22;11055;50.870;4.316;2022-12-18T00:55:13;0.60;99.90
21787;DHT22;11055;50.870;4.316;2022-12-18T00:57:39;0.60;99.90
21787;DHT22;11055;50.870;4.316;2022-12-18T01:00:06;0.70;99.90
21787;DHT22;11055;50.870;4.316;2022-12-18T01:02:32;0.80;99.90
21787;DHT22;11055;50.870;4.316;2022-12-18T01:04:57;0.70;99.90
21787;DHT22;11055;50.870;4.316;2022-12-18T01:07:23;0.50;99.90
21787;DHT22;11055;50.870;4.316;2022-12-18T01:09:49;0.30;99.90
21787;DHT22;11055;50.870;4.316;2022-12-18T01:12:14;0.20;99.90
21787;DHT22;11055;50.870;4.316;2022-12-18T01:14:40;0.10;99.90
21787;DHT22;11055;50.870;4.316;2022-12-18T01:17:06;0.10;99.90
21787;DHT22;11055;50.870;4.316;2022-12-18T01:19:32;0.20;99.90
21787;DHT22;11055;50.870;4.316;2022-12-18T01:21:58;0.10;99.90
21787;DHT22;11055;50.870;4.316;2022-12-18T01:24:24;0.20;99.90
21787;DHT22;11055;50.870;4.316;2022-12-18T01:26:49;0.30;99.90
21787;DHT22;11055;50.870;4.316;2022-12-18T01:29:15;0.30;99.90
21787;DHT22;11055;50.870;4.316;2022-12-18T01:31:41;0.50;99.90
21787;DHT22;11055;50.870;4.316;2022-12-18T01:34:06;0.50;99.90
21787;DHT22;11055;50.870;4.316;2022-12-18T01:36:34;0.60;99.90
21787;DHT22;11055;50.870;4.316;2022-12-18T01:39:06;0.60;99.90
21787;DHT22;11055;50.870;4.316;2022-12-18T01:41:33;0.60;99.90
21787;DHT22;11055;50.870;4.316;2022-12-18T01:44:56;0.50;99.90
21787;DHT22;11055;50.870;4.316;2022-12-18T01:49:48;0.10;99.90
21787;DHT22;11055;50.870;4.316;2022-12-18T01:52:14;0.20;99.90
21787;DHT22;11055;50.870;4.316;2022-12-18T01:54:40;0.20;99.90
21787;DHT22;11055;50.870;4.316;2022-12-18T01:57:06;0.10;99.90
21787;DHT22;11055;50.870;4.316;2022-12-18T01:59:33;-0.10;99.90
21787;DHT22;11055;50.870;4.316;2022-12-18T02:02:01;-0.30;99.90
21787;DHT22;11055;50.870;4.316;2022-12-18T02:04:27;-0.50;99.90
21787;DHT22;11055;50.870;4.316;2022-12-18T02:07:11;-0.60;99.90
21787;DHT22;11055;50.870;4.316;2022-12-18T02:09:48;-0.50;99.90
21787;DHT22;11055;50.870;4.316;2022-12-18T02:12:21;-0.30;99.90
21787;DHT22;11055;50.870;4.316;2022-12-18T02:15:04;-0.10;99.90
21787;DHT22;11055;50.870;4.316;2022-12-18T02:17:44;0.00;99.90
21787;DHT22;11055;50.870;4.316;2022-12-18T02:20:29;-0.10;99.90
21787;DHT22;11055;50.870;4.316;2022-12-18T02:26:15;-0.50;99.90
21787;DHT22;11055;50.870;4.316;2022-12-18T02:28:47;-0.50;99.90
21787;DHT22;11055;50.870;4.316;2022-12-18T02:31:21;-0.40;99.90
21787;DHT22;11055;50.870;4.316;2022-12-18T02:33:49;-0.40;99.90
21787;DHT22;11055;50.870;4.316;2022-12-18T02:36:17;-0.40;99.90
21787;DHT22;11055;50.870;4.316;2022-12-18T02:38:45;-0.40;99.90
21787;DHT22;11055;50.870;4.316;2022-12-18T02:41:13;-0.40;99.90
21787;DHT22;11055;50.870;4.316;2022-12-18T02:43:41;-0.40;99.90
21787;DHT22;11055;50.870;4.316;2022-12-18T02:46:31;-0.30;99.90
21787;DHT22;11055;50.870;4.316;2022-12-18T02:51:50;-0.30;99.90
21787;DHT22;11055;50.870;4.316;2022-12-18T02:56:50;-0.20;99.90
21787;DHT22;11055;50.870;4.316;2022-12-18T02:59:29;-0.30;99.90
21787;DHT22;11055;50.870;4.316;2022-12-18T03:02:19;-0.60;99.90
21787;DHT22;11055;50.870;4.316;2022-12-18T03:05:07;-0.80;99.90
21787;DHT22;11055;50.870;4.316;2022-12-18T03:08:02;-0.90;99.90
21787;DHT22;11055;50.870;4.316;2022-12-18T03:10:32;-0.90;99.90
21787;DHT22;11055;50.870;4.316;2022-12-18T03:13:08;-0.90;99.90
21787;DHT22;11055;50.870;4.316;2022-12-18T03:15:49;-0.70;99.90
21787;DHT22;11055;50.870;4.316;2022-12-18T03:18:21;-0.80;99.90
21787;DHT22;11055;50.870;4.316;2022-12-18T03:20:49;-0.70;99.90
21787;DHT22;11055;50.870;4.316;2022-12-18T03:23:20;-0.50;99.90
21787;DHT22;11055;50.870;4.316;2022-12-18T03:25:50;-0.40;99.90
21787;DHT22;11055;50.870;4.316;2022-12-18T03:28:20;-0.40;99.90
21787;DHT22;11055;50.870;4.316;2022-12-18T03:30:49;-0.20;99.90
21787;DHT22;11055;50.870;4.316;2022-12-18T03:33:31;-0.30;99.90
21787;DHT22;11055;50.870;4.316;2022-12-18T03:36:00;-0.40;99.90
21787;DHT22;11055;50.870;4.316;2022-12-18T03:38:26;-0.50;99.90
21787;DHT22;11055;50.870;4.316;2022-12-18T03:43:30;-0.70;99.90
21787;DHT22;11055;50.870;4.316;2022-12-18T03:49:05;-1.00;99.90
21787;DHT22;11055;50.870;4.316;2022-12-18T03:51:45;-0.90;99.90
21787;DHT22;11055;50.870;4.316;2022-12-18T03:54:16;-0.80;99.90
21787;DHT22;11055;50.870;4.316;2022-12-18T03:56:47;-0.90;99.90
21787;DHT22;11055;50.870;4.316;2022-12-18T03:59:15;-0.70;99.90
21787;DHT22;11055;50.870;4.316;2022-12-18T04:01:46;-0.80;99.90
21787;DHT22;11055;50.870;4.316;2022-12-18T04:04:14;-0.80;99.90
21787;DHT22;11055;50.870;4.316;2022-12-18T04:06:41;-0.80;99.90
21787;DHT22;11055;50.870;4.316;2022-12-18T04:09:09;-0.70;99.90
21787;DHT22;11055;50.870;4.316;2022-12-18T04:11:35;-0.80;99.90
21787;DHT22;11055;50.870;4.316;2022-12-18T04:14:00;-0.80;99.90
21787;DHT22;11055;50.870;4.316;2022-12-18T04:16:27;-0.90;99.90
21787;DHT22;11055;50.870;4.316;2022-12-18T04:18:53;-1.00;99.90
21787;DHT22;11055;50.870;4.316;2022-12-18T04:21:19;-0.80;99.90
21787;DHT22;11055;50.870;4.316;2022-12-18T04:23:45;-0.70;99.90
21787;DHT22;11055;50.870;4.316;2022-12-18T04:26:14;-0.60;99.90
21787;DHT22;11055;50.870;4.316;2022-12-18T04:28:40;-0.60;99.90
21787;DHT22;11055;50.870;4.316;2022-12-18T04:31:05;-0.80;99.90
21787;DHT22;11055;50.870;4.316;2022-12-18T04:33:31;-0.90;99.90
21787;DHT22;11055;50.870;4.316;2022-12-18T04:35:57;-0.90;99.90
21787;DHT22;11055;50.870;4.316;2022-12-18T04:38:23;-0.90;99.90
21787;DHT22;11055;50.870;4.316;2022-12-18T04:40:48;-0.90;99.90
21787;DHT22;11055;50.870;4.316;2022-12-18T04:43:14;-0.80;99.90
21787;DHT22;11055;50.870;4.316;2022-12-18T04:45:40;-0.50;99.90
21787;DHT22;11055;50.870;4.316;2022-12-18T04:48:05;-0.50;99.90
21787;DHT22;11055;50.870;4.316;2022-12-18T04:50:31;-0.30;99.90
21787;DHT22;11055;50.870;4.316;2022-12-18T04:52:57;-0.20;99.90
21787;DHT22;11055;50.870;4.316;2022-12-18T04:55:23;-0.40;99.90
21787;DHT22;11055;50.870;4.316;2022-12-18T04:57:49;-0.80;99.90
21787;DHT22;11055;50.870;4.316;2022-12-18T05:00:15;-1.00;99.90
21787;DHT22;11055;50.870;4.316;2022-12-18T05:02:41;-1.10;99.90
21787;DHT22;11055;50.870;4.316;2022-12-18T05:05:07;-1.30;99.90
21787;DHT22;11055;50.870;4.316;2022-12-18T05:07:32;-1.10;99.90
21787;DHT22;11055;50.870;4.316;2022-12-18T05:09:58;-1.10;99.90
21787;DHT22;11055;50.870;4.316;2022-12-18T05:12:24;-1.30;99.90
21787;DHT22;11055;50.870;4.316;2022-12-18T05:14:50;-1.30;99.90
21787;DHT22;11055;50.870;4.316;2022-12-18T05:17:16;-1.40;99.90
21787;DHT22;11055;50.870;4.316;2022-12-18T05:19:41;-1.40;99.90
21787;DHT22;11055;50.870;4.316;2022-12-18T05:22:07;-1.50;99.90
21787;DHT22;11055;50.870;4.316;2022-12-18T05:24:33;-1.70;99.90
21787;DHT22;11055;50.870;4.316;2022-12-18T05:26:59;-1.70;99.90
21787;DHT22;11055;50.870;4.316;2022-12-18T05:29:24;-1.70;99.90
21787;DHT22;11055;50.870;4.316;2022-12-18T05:31:50;-1.60;99.90
21787;DHT22;11055;50.870;4.316;2022-12-18T05:34:16;-1.40;99.90
21787;DHT22;11055;50.870;4.316;2022-12-18T05:36:42;-1.00;99.90
21787;DHT22;11055;50.870;4.316;2022-12-18T05:39:08;-0.80;99.90
21787;DHT22;11055;50.870;4.316;2022-12-18T05:41:33;-0.60;99.90
21787;DHT22;11055;50.870;4.316;2022-12-18T05:43:59;-0.50;99.90
21787;DHT22;11055;50.870;4.316;2022-12-18T05:46:25;-0.80;99.90
21787;DHT22;11055;50.870;4.316;2022-12-18T05:48:51;-1.00;99.90
21787;DHT22;11055;50.870;4.316;2022-12-18T05:51:20;-1.00;99.90
21787;DHT22;11055;50.870;4.316;2022-12-18T05:53:46;-1.00;99.90
21787;DHT22;11055;50.870;4.316;2022-12-18T05:56:16;-0.90;99.90
21787;DHT22;11055;50.870;4.316;2022-12-18T05:58:42;-0.80;99.90
21787;DHT22;11055;50.870;4.316;2022-12-18T06:01:15;-0.80;99.90
21787;DHT22;11055;50.870;4.316;2022-12-18T06:03:41;-1.00;99.90
21787;DHT22;11055;50.870;4.316;2022-12-18T06:06:18;-0.90;99.90
21787;DHT22;11055;50.870;4.316;2022-12-18T06:08:44;-1.00;99.90
21787;DHT22;11055;50.870;4.316;2022-12-18T06:11:10;-0.90;99.90
21787;DHT22;11055;50.870;4.316;2022-12-18T06:13:37;-0.90;99.90
21787;DHT22;11055;50.870;4.316;2022-12-18T06:16:05;-0.80;99.90
21787;DHT22;11055;50.870;4.316;2022-12-18T06:18:31;-0.80;99.90
21787;DHT22;11055;50.870;4.316;2022-12-18T06:20:58;-0.60;99.90
21787;DHT22;11055;50.870;4.316;2022-12-18T06:23:25;-0.50;99.90
21787;DHT22;11055;50.870;4.316;2022-12-18T06:25:51;-0.30;99.90
21787;DHT22;11055;50.870;4.316;2022-12-18T06:28:17;-0.20;99.90
21787;DHT22;11055;50.870;4.316;2022-12-18T06:30:46;-0.20;99.90
21787;DHT22;11055;50.870;4.316;2022-12-18T06:33:13;-0.30;99.90
21787;DHT22;11055;50.870;4.316;2022-12-18T06:35:40;-0.40;99.90
21787;DHT22;11055;50.870;4.316;2022-12-18T06:38:06;-0.50;99.90
21787;DHT22;11055;50.870;4.316;2022-12-18T06:40:31;-0.60;99.90
21787;DHT22;11055;50.870;4.316;2022-12-18T06:42:57;-0.70;99.90
21787;DHT22;11055;50.870;4.316;2022-12-18T06:45:23;-0.70;99.90
21787;DHT22;11055;50.870;4.316;2022-12-18T06:47:50;-1.00;99.90
21787;DHT22;11055;50.870;4.316;2022-12-18T06:50:15;-1.10;99.90
21787;DHT22;11055;50.870;4.316;2022-12-18T06:52:41;-1.00;99.90
21787;DHT22;11055;50.870;4.316;2022-12-18T06:55:10;-0.80;99.90
21787;DHT22;11055;50.870;4.316;2022-12-18T06:57:36;-0.70;99.90
21787;DHT22;11055;50.870;4.316;2022-12-18T07:00:03;-0.70;99.90
21787;DHT22;11055;50.870;4.316;2022-12-18T07:02:29;-0.80;99.90
21787;DHT22;11055;50.870;4.316;2022-12-18T07:04:55;-0.90;99.90
21787;DHT22;11055;50.870;4.316;2022-12-18T07:07:20;-0.80;99.90
21787;DHT22;11055;50.870;4.316;2022-12-18T07:09:46;-0.70;99.90
21787;DHT22;11055;50.870;4.316;2022-12-18T07:12:12;-0.90;99.90
21787;DHT22;11055;50.870;4.316;2022-12-18T07:14:37;-1.30;99.90
21787;DHT22;11055;50.870;4.316;2022-12-18T07:17:03;-1.40;99.90
21787;DHT22;11055;50.870;4.316;2022-12-18T07:19:29;-1.50;99.90
21787;DHT22;11055;50.870;4.316;2022-12-18T07:21:55;-1.60;99.90
21787;DHT22;11055;50.870;4.316;2022-12-18T07:24:20;-1.60;99.90
21787;DHT22;11055;50.870;4.316;2022-12-18T07:26:46;-1.50;99.90
21787;DHT22;11055;50.870;4.316;2022-12-18T07:29:12;-1.60;99.90
21787;DHT22;11055;50.870;4.316;2022-12-18T07:31:38;-1.40;99.90
21787;DHT22;11055;50.870;4.316;2022-12-18T07:34:04;-1.20;99.90
21787;DHT22;11055;50.870;4.316;2022-12-18T07:36:29;-1.00;99.90
21787;DHT22;11055;50.870;4.316;2022-12-18T07:38:55;-0.80;99.90
21787;DHT22;11055;50.870;4.316;2022-12-18T07:41:21;-0.50;99.90
21787;DHT22;11055;50.870;4.316;2022-12-18T07:43:47;-0.30;99.90
21787;DHT22;11055;50.870;4.316;2022-12-18T07:46:14;-0.20;99.90
21787;DHT22;11055;50.870;4.316;2022-12-18T07:48:41;-0.40;99.90
21787;DHT22;11055;50.870;4.316;2022-12-18T07:51:08;-0.70;99.90
21787;DHT22;11055;50.870;4.316;2022-12-18T07:53:35;-0.50;99.90
21787;DHT22;11055;50.870;4.316;2022-12-18T07:56:04;-0.40;99.90
21787;DHT22;11055;50.870;4.316;2022-12-18T07:58:31;-0.40;99.90
21787;DHT22;11055;50.870;4.316;2022-12-18T08:03:30;0.00;99.90
21787;DHT22;11055;50.870;4.316;2022-12-18T08:06:03;0.10;99.90
21787;DHT22;11055;50.870;4.316;2022-12-18T08:08:30;0.00;99.90
21787;DHT22;11055;50.870;4.316;2022-12-18T08:10:56;0.10;99.90
21787;DHT22;11055;50.870;4.316;2022-12-18T08:13:22;0.00;99.90
21787;DHT22;11055;50.870;4.316;2022-12-18T08:16:08;-0.10;99.90
21787;DHT22;11055;50.870;4.316;2022-12-18T08:18:37;-0.20;99.90
21787;DHT22;11055;50.870;4.316;2022-12-18T08:23:38;-0.90;99.90
21787;DHT22;11055;50.870;4.316;2022-12-18T08:26:05;-1.20;99.90
21787;DHT22;11055;50.870;4.316;2022-12-18T08:28:30;-1.30;99.90
21787;DHT22;11055;50.870;4.316;2022-12-18T08:30:56;-1.40;99.90
21787;DHT22;11055;50.870;4.316;2022-12-18T08:33:22;-1.50;99.90
21787;DHT22;11055;50.870;4.316;2022-12-18T08:35:47;-1.50;99.90
21787;DHT22;11055;50.870;4.316;2022-12-18T08:38:13;-1.40;99.90
21787;DHT22;11055;50.870;4.316;2022-12-18T08:40:39;-1.30;99.90
21787;DHT22;11055;50.870;4.316;2022-12-18T08:43:04;-1.40;99.90
21787;DHT22;11055;50.870;4.316;2022-12-18T08:45:49;-1.20;99.90
21787;DHT22;11055;50.870;4.316;2022-12-18T08:48:14;-1.20;99.90
21787;DHT22;11055;50.870;4.316;2022-12-18T08:50:40;-1.20;99.90
21787;DHT22;11055;50.870;4.316;2022-12-18T08:53:06;-1.10;99.90
21787;DHT22;11055;50.870;4.316;2022-12-18T08:55:32;-1.10;99.90
21787;DHT22;11055;50.870;4.316;2022-12-18T08:57:57;-1.00;99.90
21787;DHT22;11055;50.870;4.316;2022-12-18T09:00:23;-1.00;99.90
21787;DHT22;11055;50.870;4.316;2022-12-18T09:02:49;-0.90;99.90
21787;DHT22;11055;50.870;4.316;2022-12-18T09:05:15;-0.90;99.90
21787;DHT22;11055;50.870;4.316;2022-12-18T09:07:40;-0.80;99.90
21787;DHT22;11055;50.870;4.316;2022-12-18T09:10:06;-0.70;99.90
21787;DHT22;11055;50.870;4.316;2022-12-18T09:12:32;-0.60;99.90
21787;DHT22;11055;50.870;4.316;2022-12-18T09:14:58;-0.60;99.90
21787;DHT22;11055;50.870;4.316;2022-12-18T09:17:25;-0.50;99.90
21787;DHT22;11055;50.870;4.316;2022-12-18T09:19:51;-0.40;99.90
21787;DHT22;11055;50.870;4.316;2022-12-18T09:22:17;-0.30;99.90
21787;DHT22;11055;50.870;4.316;2022-12-18T09:24:42;-0.30;99.90
21787;DHT22;11055;50.870;4.316;2022-12-18T09:27:08;-0.20;99.90
21787;DHT22;11055;50.870;4.316;2022-12-18T09:29:34;0.00;99.90
21787;DHT22;11055;50.870;4.316;2022-12-18T09:31:59;0.20;99.90
21787;DHT22;11055;50.870;4.316;2022-12-18T09:34:25;0.10;99.90
21787;DHT22;11055;50.870;4.316;2022-12-18T09:36:51;0.20;99.90
21787;DHT22;11055;50.870;4.316;2022-12-18T09:39:16;0.10;99.90
21787;DHT22;11055;50.870;4.316;2022-12-18T09:41:57;0.00;99.90
21787;DHT22;11055;50.870;4.316;2022-12-18T09:44:40;0.10;99.90
21787;DHT22;11055;50.870;4.316;2022-12-18T09:47:19;0.00;99.90
21787;DHT22;11055;50.870;4.316;2022-12-18T09:49:58;0.10;99.90
21787;DHT22;11055;50.870;4.316;2022-12-18T09:52:34;0.00;99.90
21787;DHT22;11055;50.870;4.316;2022-12-18T10:00:57;0.20;99.90
21787;DHT22;11055;50.870;4.316;2022-12-18T10:03:23;0.20;99.90
21787;DHT22;11055;50.870;4.316;2022-12-18T10:14:08;0.70;99.90
21787;DHT22;11055;50.870;4.316;2022-12-18T10:16:47;0.70;99.90
21787;DHT22;11055;50.870;4.316;2022-12-18T10:22:36;0.60;99.90
21787;DHT22;11055;50.870;4.316;2022-12-18T10:27:41;0.80;99.90
21787;DHT22;11055;50.870;4.316;2022-12-18T10:30:15;0.90;99.90
21787;DHT22;11055;50.870;4.316;2022-12-18T10:32:41;1.00;99.90
21787;DHT22;11055;50.870;4.316;2022-12-18T10:35:24;0.90;99.90
21787;DHT22;11055;50.870;4.316;2022-12-18T10:38:20;0.80;99.90
21787;DHT22;11055;50.870;4.316;2022-12-18T10:43:24;0.90;99.90
21787;DHT22;11055;50.870;4.316;2022-12-18T10:51:29;1.70;99.90
21787;DHT22;11055;50.870;4.316;2022-12-18T10:53:57;1.90;99.90
21787;DHT22;11055;50.870;4.316;2022-12-18T10:56:26;2.00;99.90
21787;DHT22;11055;50.870;4.316;2022-12-18T10:59:00;2.10;99.90
21787;DHT22;11055;50.870;4.316;2022-12-18T11:01:26;1.80;99.90
21787;DHT22;11055;50.870;4.316;2022-12-18T11:06:23;1.90;99.90
21787;DHT22;11055;50.870;4.316;2022-12-18T11:09:17;2.00;99.90
21787;DHT22;11055;50.870;4.316;2022-12-18T11:11:52;2.00;99.90
21787;DHT22;11055;50.870;4.316;2022-12-18T11:14:33;1.90;99.90
21787;DHT22;11055;50.870;4.316;2022-12-18T11:17:00;1.60;99.90
21787;DHT22;11055;50.870;4.316;2022-12-18T11:21:55;1.50;99.90
21787;DHT22;11055;50.870;4.316;2022-12-18T11:24:28;1.40;99.90
21787;DHT22;11055;50.870;4.316;2022-12-18T11:26:59;1.40;99.90
21787;DHT22;11055;50.870;4.316;2022-12-18T11:29:38;1.30;99.90
21787;DHT22;11055;50.870;4.316;2022-12-18T11:34:53;1.40;99.90
21787;DHT22;11055;50.870;4.316;2022-12-18T11:37:21;1.40;99.90
21787;DHT22;11055;50.870;4.316;2022-12-18T11:39:54;1.40;99.90
21787;DHT22;11055;50.870;4.316;2022-12-18T11:42:30;1.70;99.90
21787;DHT22;11055;50.870;4.316;2022-12-18T11:50:21;1.80;99.90
21787;DHT22;11055;50.870;4.316;2022-12-18T11:52:49;2.00;99.90
21787;DHT22;11055;50.870;4.316;2022-12-18T11:55:33;2.00;99.90
21787;DHT22;11055;50.870;4.316;2022-12-18T12:04:16;2.30;99.90
21787;DHT22;11055;50.870;4.316;2022-12-18T12:07:04;2.20;99.90
21787;DHT22;11055;50.870;4.316;2022-12-18T12:12:31;2.20;99.90
21787;DHT22;11055;50.870;4.316;2022-12-18T12:15:32;2.30;99.90
21787;DHT22;11055;50.870;4.316;2022-12-18T12:18:38;2.60;99.90
21787;DHT22;11055;50.870;4.316;2022-12-18T12:24:10;2.50;99.90
21787;DHT22;11055;50.870;4.316;2022-12-18T12:38:12;2.10;99.90
21787;DHT22;11055;50.870;4.316;2022-12-18T12:40:45;2.20;99.90
21787;DHT22;11055;50.870;4.316;2022-12-18T12:43:27;2.10;99.90
21787;DHT22;11055;50.870;4.316;2022-12-18T12:46:11;2.10;99.90
21787;DHT22;11055;50.870;4.316;2022-12-18T12:48:52;2.20;99.90
21787;DHT22;11055;50.870;4.316;2022-12-18T12:51:22;2.30;99.90
21787;DHT22;11055;50.870;4.316;2022-12-18T12:53:50;2.30;99.90
21787;DHT22;11055;50.870;4.316;2022-12-18T12:56:18;2.40;99.90
21787;DHT22;11055;50.870;4.316;2022-12-18T12:59:02;2.50;99.90
21787;DHT22;11055;50.870;4.316;2022-12-18T13:04:24;2.30;99.90
21787;DHT22;11055;50.870;4.316;2022-12-18T13:10:11;2.50;99.90
21787;DHT22;11055;50.870;4.316;2022-12-18T13:15:31;2.60;99.90
21787;DHT22;11055;50.870;4.316;2022-12-18T13:23:18;2.10;99.90
21787;DHT22;11055;50.870;4.316;2022-12-18T13:25:44;2.30;99.90
21787;DHT22;11055;50.870;4.316;2022-12-18T13:28:21;2.30;99.90
21787;DHT22;11055;50.870;4.316;2022-12-18T13:30:57;2.30;99.90
21787;DHT22;11055;50.870;4.316;2022-12-18T13:46:03;2.30;99.90
21787;DHT22;11055;50.870;4.316;2022-12-18T13:48:33;2.20;99.90
21787;DHT22;11055;50.870;4.316;2022-12-18T13:51:08;2.40;99.90
21787;DHT22;11055;50.870;4.316;2022-12-18T13:53:43;2.20;99.90
21787;DHT22;11055;50.870;4.316;2022-12-18T13:56:16;2.40;99.90
21787;DHT22;11055;50.870;4.316;2022-12-18T13:58:41;2.40;99.90
21787;DHT22;11055;50.870;4.316;2022-12-18T14:01:22;2.40;99.90
21787;DHT22;11055;50.870;4.316;2022-12-18T14:03:48;2.50;99.90
21787;DHT22;11055;50.870;4.316;2022-12-18T14:06:14;2.50;99.90
21787;DHT22;11055;50.870;4.316;2022-12-18T14:08:43;2.40;99.90
21787;DHT22;11055;50.870;4.316;2022-12-18T14:11:21;2.20;99.90
21787;DHT22;11055;50.870;4.316;2022-12-18T14:13:48;2.30;99.90
21787;DHT22;11055;50.870;4.316;2022-12-18T14:16:15;2.30;99.90
21787;DHT22;11055;50.870;4.316;2022-12-18T14:18:53;2.30;99.90
21787;DHT22;11055;50.870;4.316;2022-12-18T14:21:29;2.40;99.90
21787;DHT22;11055;50.870;4.316;2022-12-18T14:24:19;2.50;99.90
21787;DHT22;11055;50.870;4.316;2022-12-18T14:26:45;2.40;99.90
21787;DHT22;11055;50.870;4.316;2022-12-18T14:29:27;2.50;99.90
21787;DHT22;11055;50.870;4.316;2022-12-18T14:32:09;2.60;99.90
21787;DHT22;11055;50.870;4.316;2022-12-18T14:34:35;2.40;99.90
21787;DHT22;11055;50.870;4.316;2022-12-18T14:37:00;2.40;99.90
21787;DHT22;11055;50.870;4.316;2022-12-18T14:39:26;2.40;99.90
21787;DHT22;11055;50.870;4.316;2022-12-18T14:41:52;2.40;99.90
21787;DHT22;11055;50.870;4.316;2022-12-18T14:44:18;2.40;99.90
21787;DHT22;11055;50.870;4.316;2022-12-18T14:46:45;2.30;99.90
21787;DHT22;11055;50.870;4.316;2022-12-18T14:49:24;2.10;99.90
21787;DHT22;11055;50.870;4.316;2022-12-18T14:51:54;2.20;99.90
21787;DHT22;11055;50.870;4.316;2022-12-18T14:54:21;2.20;99.90
21787;DHT22;11055;50.870;4.316;2022-12-18T14:56:58;2.20;99.90
21787;DHT22;11055;50.870;4.316;2022-12-18T14:59:26;2.30;99.90
21787;DHT22;11055;50.870;4.316;2022-12-18T15:04:36;2.00;99.90
21787;DHT22;11055;50.870;4.316;2022-12-18T15:18:05;2.00;99.90
21787;DHT22;11055;50.870;4.316;2022-12-18T15:20:56;2.00;99.90
21787;DHT22;11055;50.870;4.316;2022-12-18T15:26:13;2.10;99.90
21787;DHT22;11055;50.870;4.316;2022-12-18T15:28:50;2.00;99.90
21787;DHT22;11055;50.870;4.316;2022-12-18T15:33:44;2.00;99.90
21787;DHT22;11055;50.870;4.316;2022-12-18T15:36:13;2.00;99.90
21787;DHT22;11055;50.870;4.316;2022-12-18T15:38:40;2.00;99.90
21787;DHT22;11055;50.870;4.316;2022-12-18T15:41:05;2.00;99.90
21787;DHT22;11055;50.870;4.316;2022-12-18T15:43:31;2.10;99.90
21787;DHT22;11055;50.870;4.316;2022-12-18T15:46:15;2.10;99.90
21787;DHT22;11055;50.870;4.316;2022-12-18T15:49:01;2.10;99.90
21787;DHT22;11055;50.870;4.316;2022-12-18T15:51:33;2.20;99.90
21787;DHT22;11055;50.870;4.316;2022-12-18T15:54:02;2.30;99.90
21787;DHT22;11055;50.870;4.316;2022-12-18T15:56:29;2.20;99.90
21787;DHT22;11055;50.870;4.316;2022-12-18T15:59:15;2.20;99.90
21787;DHT22;11055;50.870;4.316;2022-12-18T16:01:44;2.20;99.90
21787;DHT22;11055;50.870;4.316;2022-12-18T16:04:15;2.10;99.90
21787;DHT22;11055;50.870;4.316;2022-12-18T16:06:41;2.00;99.90
21787;DHT22;11055;50.870;4.316;2022-12-18T16:09:07;2.00;99.90
21787;DHT22;11055;50.870;4.316;2022-12-18T16:11:35;2.00;99.90
21787;DHT22;11055;50.870;4.316;2022-12-18T16:16:35;2.10;99.90
21787;DHT22;11055;50.870;4.316;2022-12-18T16:19:01;2.20;99.90
21787;DHT22;11055;50.870;4.316;2022-12-18T16:21:27;2.10;99.90
21787;DHT22;11055;50.870;4.316;2022-12-18T16:23:52;2.10;99.90
21787;DHT22;11055;50.870;4.316;2022-12-18T16:26:18;2.20;99.90
21787;DHT22;11055;50.870;4.316;2022-12-18T16:28:44;2.20;99.90
21787;DHT22;11055;50.870;4.316;2022-12-18T16:31:09;2.20;99.90
21787;DHT22;11055;50.870;4.316;2022-12-18T16:33:35;2.30;99.90
21787;DHT22;11055;50.870;4.316;2022-12-18T16:36:00;2.40;99.90
21787;DHT22;11055;50.870;4.316;2022-12-18T16:38:26;2.30;99.90
21787;DHT22;11055;50.870;4.316;2022-12-18T16:40:52;2.30;99.90
21787;DHT22;11055;50.870;4.316;2022-12-18T16:43:35;2.30;99.90
21787;DHT22;11055;50.870;4.316;2022-12-18T16:46:01;2.20;99.90
21787;DHT22;11055;50.870;4.316;2022-12-18T16:48:27;2.40;99.90
21787;DHT22;11055;50.870;4.316;2022-12-18T16:51:00;2.40;99.90
21787;DHT22;11055;50.870;4.316;2022-12-18T16:53:27;2.40;99.90
21787;DHT22;11055;50.870;4.316;2022-12-18T16:55:55;2.40;99.90
21787;DHT22;11055;50.870;4.316;2022-12-18T16:58:21;2.30;99.90
21787;DHT22;11055;50.870;4.316;2022-12-18T17:00:47;2.30;99.90
21787;DHT22;11055;50.870;4.316;2022-12-18T17:03:13;2.30;99.90
21787;DHT22;11055;50.870;4.316;2022-12-18T17:05:38;2.30;99.90
21787;DHT22;11055;50.870;4.316;2022-12-18T17:08:04;2.40;99.90
21787;DHT22;11055;50.870;4.316;2022-12-18T17:10:30;2.30;99.90
21787;DHT22;11055;50.870;4.316;2022-12-18T17:12:55;2.20;99.90
21787;DHT22;11055;50.870;4.316;2022-12-18T17:15:21;2.30;99.90
21787;DHT22;11055;50.870;4.316;2022-12-18T17:17:47;2.30;99.90
21787;DHT22;11055;50.870;4.316;2022-12-18T17:20:13;2.40;99.90
21787;DHT22;11055;50.870;4.316;2022-12-18T17:22:38;2.50;99.90
21787;DHT22;11055;50.870;4.316;2022-12-18T17:25:04;2.60;99.90
21787;DHT22;11055;50.870;4.316;2022-12-18T17:27:30;2.50;99.90
21787;DHT22;11055;50.870;4.316;2022-12-18T17:29:56;2.60;99.90
21787;DHT22;11055;50.870;4.316;2022-12-18T17:32:21;2.50;99.90
21787;DHT22;11055;50.870;4.316;2022-12-18T17:34:47;2.60;99.90
21787;DHT22;11055;50.870;4.316;2022-12-18T17:37:13;2.70;99.90
21787;DHT22;11055;50.870;4.316;2022-12-18T17:39:39;2.80;99.90
21787;DHT22;11055;50.870;4.316;2022-12-18T17:42:04;2.90;99.90
21787;DHT22;11055;50.870;4.316;2022-12-18T17:44:31;3.00;99.90
21787;DHT22;11055;50.870;4.316;2022-12-18T17:46:58;2.80;99.90
21787;DHT22;11055;50.870;4.316;2022-12-18T17:49:24;2.70;99.90
21787;DHT22;11055;50.870;4.316;2022-12-18T17:51:49;2.60;99.90
21787;DHT22;11055;50.870;4.316;2022-12-18T17:54:16;2.60;99.90
21787;DHT22;11055;50.870;4.316;2022-12-18T17:56:42;2.60;99.90
21787;DHT22;11055;50.870;4.316;2022-12-18T17:59:08;2.60;99.90
21787;DHT22;11055;50.870;4.316;2022-12-18T18:01:34;2.60;99.90
21787;DHT22;11055;50.870;4.316;2022-12-18T18:03:59;2.60;99.90
21787;DHT22;11055;50.870;4.316;2022-12-18T18:06:26;2.60;99.90
21787;DHT22;11055;50.870;4.316;2022-12-18T18:08:53;2.60;99.90